createdAt,value
2022-09-28T00:01:11.512Z,13.60
2022-09-28T00:03:38.487Z,13.70
2022-09-28T00:06:06.522Z,13.70
2022-09-28T00:08:34.046Z,13.70
2022-09-28T00:11:01.563Z,13.70
2022-09-28T00:13:31.803Z,13.70
2022-09-28T00:16:09.734Z,13.70
2022-09-28T00:18:36.628Z,13.70
2022-09-28T00:21:16.999Z,13.70
2022-09-28T00:24:02.475Z,13.70
2022-09-28T00:26:30.649Z,13.70
2022-09-28T00:28:59.264Z,13.70
2022-09-28T00:31:31.771Z,13.70
2022-09-28T00:34:00.557Z,13.70
2022-09-28T00:36:31.472Z,13.80
2022-09-28T00:38:58.944Z,13.80
2022-09-28T00:41:27.198Z,13.70
2022-09-28T00:43:54.581Z,13.70
2022-09-28T00:46:34.998Z,13.70
2022-09-28T00:49:05.869Z,13.80
2022-09-28T00:51:33.636Z,13.70
2022-09-28T00:54:01.641Z,13.70
2022-09-28T00:56:30.868Z,13.70
2022-09-28T00:58:59.121Z,13.70
2022-09-28T01:01:27.274Z,13.70
2022-09-28T01:03:54.947Z,13.70
2022-09-28T01:06:22.431Z,13.70
2022-09-28T01:08:51.576Z,13.70
2022-09-28T01:11:19.303Z,13.70
2022-09-28T01:13:47.344Z,13.70
2022-09-28T01:16:14.347Z,13.60
2022-09-28T01:18:47.641Z,13.70
2022-09-28T01:21:21.555Z,13.60
2022-09-28T01:24:01.005Z,13.60
2022-09-28T01:26:46.660Z,13.60
2022-09-28T01:29:27.508Z,13.70
2022-09-28T01:32:10.167Z,13.60
2022-09-28T01:34:43.797Z,13.70
2022-09-28T01:37:12.783Z,13.70
2022-09-28T01:39:44.637Z,13.60
2022-09-28T01:42:23.680Z,13.60
2022-09-28T01:44:51.767Z,13.60
2022-09-28T01:47:20.737Z,13.60
2022-09-28T01:49:49.479Z,13.70
2022-09-28T01:52:20.287Z,13.60
2022-09-28T01:54:50.341Z,13.60
2022-09-28T01:57:26.727Z,13.60
2022-09-28T01:59:58.386Z,13.60
2022-09-28T02:02:27.525Z,13.60
2022-09-28T02:04:58.287Z,13.50
2022-09-28T02:07:39.162Z,13.50
2022-09-28T02:10:13.199Z,13.50
2022-09-28T02:12:46.590Z,13.50
2022-09-28T02:15:33.696Z,13.50
2022-09-28T02:18:00.566Z,13.50
2022-09-28T02:20:28.951Z,13.50
2022-09-28T02:22:56.787Z,13.50
2022-09-28T02:25:30.275Z,13.40
2022-09-28T02:28:05.221Z,13.40
2022-09-28T02:30:33.449Z,13.40
2022-09-28T02:33:03.651Z,13.40
2022-09-28T02:35:30.704Z,13.40
2022-09-28T02:37:57.751Z,13.40
2022-09-28T02:40:26.600Z,13.40
2022-09-28T02:43:02.770Z,13.30
2022-09-28T02:45:48.430Z,13.30
2022-09-28T02:48:44.118Z,13.40
2022-09-28T02:51:15.294Z,13.40
2022-09-28T02:53:48.370Z,13.30
2022-09-28T02:56:15.399Z,13.30
2022-09-28T02:58:48.425Z,13.30
2022-09-28T03:01:21.141Z,13.30
2022-09-28T03:03:57.978Z,13.30
2022-09-28T03:06:40.321Z,13.20
2022-09-28T03:09:16.671Z,13.20
2022-09-28T03:11:47.254Z,13.20
2022-09-28T03:14:14.463Z,13.20
2022-09-28T03:16:45.101Z,13.20
2022-09-28T03:19:12.765Z,13.20
2022-09-28T03:21:39.714Z,13.10
2022-09-28T03:24:06.699Z,13.20
2022-09-28T03:26:33.605Z,13.20
2022-09-28T03:29:00.672Z,13.10
2022-09-28T03:31:27.751Z,13.10
2022-09-28T03:33:54.880Z,13.10
2022-09-28T03:36:21.774Z,13.10
2022-09-28T03:38:48.652Z,13.00
2022-09-28T03:41:15.439Z,13.00
2022-09-28T03:43:42.306Z,13.00
2022-09-28T03:46:09.160Z,13.00
2022-09-28T03:48:36.320Z,13.00
2022-09-28T03:51:04.714Z,13.00
2022-09-28T03:53:32.980Z,12.90
2022-09-28T03:56:06.860Z,13.00
2022-09-28T03:58:34.083Z,13.00
2022-09-28T04:01:05.137Z,12.90
2022-09-28T04:03:32.201Z,13.00
2022-09-28T04:05:59.047Z,12.90
2022-09-28T04:08:25.954Z,13.00
2022-09-28T04:10:55.851Z,13.00
2022-09-28T04:13:22.723Z,12.90
2022-09-28T04:15:54.114Z,12.90
2022-09-28T04:18:21.458Z,12.90
2022-09-28T04:20:48.516Z,12.90
2022-09-28T04:23:15.646Z,12.90
2022-09-28T04:25:45.933Z,12.90
2022-09-28T04:28:31.374Z,12.90
2022-09-28T04:30:58.277Z,12.90
2022-09-28T04:33:25.101Z,12.90
2022-09-28T04:35:51.918Z,12.90
2022-09-28T04:38:35.629Z,12.90
2022-09-28T04:41:06.175Z,13.00
2022-09-28T04:43:33.322Z,13.00
2022-09-28T04:46:00.884Z,13.00
2022-09-28T04:48:28.213Z,13.00
2022-09-28T04:50:55.806Z,13.00
2022-09-28T04:53:23.116Z,13.00
2022-09-28T04:56:00.248Z,13.00
2022-09-28T04:58:27.595Z,13.00
2022-09-28T05:00:57.394Z,13.00
2022-09-28T05:03:24.265Z,13.00
2022-09-28T05:05:51.160Z,13.00
2022-09-28T05:08:18.414Z,13.00
2022-09-28T05:10:45.514Z,13.00
2022-09-28T05:13:12.933Z,13.00
2022-09-28T05:15:40.485Z,13.00
2022-09-28T05:18:07.566Z,13.00
2022-09-28T05:20:34.910Z,13.00
2022-09-28T05:23:01.747Z,13.00
2022-09-28T05:25:28.600Z,13.00
2022-09-28T05:27:56.426Z,13.00
2022-09-28T05:30:24.135Z,13.00
2022-09-28T05:32:51.745Z,13.10
2022-09-28T05:35:18.749Z,13.10
2022-09-28T05:37:45.847Z,13.10
2022-09-28T05:40:12.718Z,13.10
2022-09-28T05:42:40.829Z,13.10
2022-09-28T05:45:08.412Z,13.20
2022-09-28T05:47:46.176Z,13.20
2022-09-28T05:50:16.043Z,13.20
2022-09-28T05:52:43.900Z,13.20
2022-09-28T05:55:11.319Z,13.30
2022-09-28T05:57:38.444Z,13.30
2022-09-28T06:00:08.169Z,13.40
2022-09-28T06:02:35.505Z,13.40
2022-09-28T06:05:02.436Z,13.40
2022-09-28T06:07:29.257Z,13.40
2022-09-28T06:09:56.321Z,13.40
2022-09-28T06:12:23.400Z,13.40
2022-09-28T06:14:50.390Z,13.50
2022-09-28T06:17:17.390Z,13.40
2022-09-28T06:19:44.487Z,13.50
2022-09-28T06:22:11.698Z,13.50
2022-09-28T06:24:38.504Z,13.50
2022-09-28T06:27:05.311Z,13.50
2022-09-28T06:29:32.213Z,13.50
2022-09-28T06:31:59.268Z,13.50
2022-09-28T06:34:26.152Z,13.50
2022-09-28T06:36:53.062Z,13.50
2022-09-28T06:39:19.928Z,13.60
2022-09-28T06:41:46.742Z,13.60
2022-09-28T06:44:13.719Z,13.60
2022-09-28T06:46:41.243Z,13.60
2022-09-28T06:49:09.609Z,13.60
2022-09-28T06:51:36.877Z,13.60
2022-09-28T06:54:03.807Z,13.60
2022-09-28T06:56:32.935Z,13.60
2022-09-28T06:59:00.132Z,13.60
2022-09-28T07:01:27.157Z,13.60
2022-09-28T07:03:55.848Z,13.60
2022-09-28T07:06:24.238Z,13.70
2022-09-28T07:09:02.981Z,13.70
2022-09-28T07:11:39.866Z,13.70
2022-09-28T07:14:07.228Z,13.70
2022-09-28T07:16:56.937Z,13.70
2022-09-28T07:19:21.132Z,13.70
2022-09-28T07:21:57.261Z,13.70
2022-09-28T07:24:26.367Z,13.80
2022-09-28T07:26:53.228Z,13.80
2022-09-28T07:29:20.082Z,13.80
2022-09-28T07:31:47.029Z,13.80
2022-09-28T07:34:14.011Z,13.80
2022-09-28T07:36:40.903Z,13.80
2022-09-28T07:39:07.797Z,13.80
2022-09-28T07:41:36.105Z,13.80
2022-09-28T07:44:06.384Z,13.90
2022-09-28T07:46:37.102Z,13.90
2022-09-28T07:49:09.831Z,14.00
2022-09-28T07:51:39.273Z,14.00
2022-09-28T07:54:06.861Z,14.00
2022-09-28T07:56:35.158Z,14.10
2022-09-28T07:59:02.013Z,14.10
2022-09-28T08:01:30.701Z,14.10
2022-09-28T08:03:57.613Z,14.10
2022-09-28T08:06:24.768Z,14.10
2022-09-28T08:08:52.824Z,14.20
2022-09-28T08:11:19.771Z,14.10
2022-09-28T08:13:47.811Z,14.20
2022-09-28T08:16:14.820Z,14.20
2022-09-28T08:18:41.712Z,14.20
2022-09-28T08:21:28.972Z,14.20
2022-09-28T08:23:56.255Z,14.20
2022-09-28T08:26:23.103Z,14.20
2022-09-28T08:28:50.477Z,14.20
2022-09-28T08:31:17.470Z,14.20
2022-09-28T08:33:44.340Z,14.20
2022-09-28T08:36:11.201Z,14.20
2022-09-28T08:38:37.999Z,14.20
2022-09-28T08:41:37.140Z,14.20
2022-09-28T08:44:15.956Z,14.20
2022-09-28T08:46:46.852Z,14.20
2022-09-28T08:49:25.505Z,14.20
2022-09-28T08:51:59.644Z,14.20
2022-09-28T08:54:44.912Z,14.20
2022-09-28T08:57:42.146Z,14.20
2022-09-28T09:00:14.861Z,14.10
2022-09-28T09:02:42.840Z,14.10
2022-09-28T09:05:14.020Z,14.10
2022-09-28T09:07:44.082Z,14.10
2022-09-28T09:10:18.825Z,14.20
2022-09-28T09:12:45.676Z,14.20
2022-09-28T09:15:17.663Z,14.20
2022-09-28T09:18:03.843Z,14.20
2022-09-28T09:20:33.828Z,14.20
2022-09-28T09:23:01.533Z,14.20
2022-09-28T09:25:29.898Z,14.20
2022-09-28T09:27:56.824Z,14.30
2022-09-28T09:30:26.340Z,14.30
2022-09-28T09:33:10.389Z,14.40
2022-09-28T09:35:37.715Z,14.40
2022-09-28T09:38:16.945Z,14.40
2022-09-28T09:40:52.828Z,14.40
2022-09-28T09:43:31.538Z,14.50
2022-09-28T09:45:58.813Z,14.60
2022-09-28T09:48:31.570Z,14.60
2022-09-28T09:51:04.969Z,14.60
2022-09-28T09:53:40.903Z,14.60
2022-09-28T09:56:13.176Z,14.60
2022-09-28T09:58:50.741Z,14.50
2022-09-28T10:01:19.602Z,14.50
2022-09-28T10:03:48.359Z,14.40
2022-09-28T10:06:27.500Z,14.40
2022-09-28T10:09:05.418Z,14.40
2022-09-28T10:11:36.731Z,14.40
2022-09-28T10:14:04.418Z,14.60
2022-09-28T10:16:33.216Z,14.50
2022-09-28T10:19:00.622Z,14.60
2022-09-28T10:21:28.263Z,14.60
2022-09-28T10:24:04.057Z,14.50
2022-09-28T10:26:36.419Z,14.50
2022-09-28T10:29:04.909Z,14.50
2022-09-28T10:31:35.497Z,14.50
2022-09-28T10:34:02.757Z,14.40
2022-09-28T10:36:29.799Z,14.40
2022-09-28T10:38:58.061Z,14.40
2022-09-28T10:41:25.081Z,14.50
2022-09-28T10:44:19.757Z,14.40
2022-09-28T10:46:55.400Z,14.40
2022-09-28T10:49:22.845Z,14.50
2022-09-28T10:51:51.726Z,14.50
2022-09-28T10:54:20.172Z,14.50
2022-09-28T10:56:47.535Z,14.50
2022-09-28T10:59:24.526Z,14.50
2022-09-28T11:01:59.477Z,14.40
2022-09-28T11:04:30.533Z,14.50
2022-09-28T11:09:31.566Z,14.50
2022-09-28T11:11:59.207Z,14.50
2022-09-28T11:14:26.131Z,14.50
2022-09-28T11:17:11.430Z,14.60
2022-09-28T11:19:38.484Z,14.60
2022-09-28T11:22:20.311Z,14.50
2022-09-28T11:24:48.480Z,14.50
2022-09-28T11:27:22.842Z,14.60
2022-09-28T11:29:55.819Z,14.50
2022-09-28T11:32:24.133Z,14.60
2022-09-28T11:34:59.709Z,14.70
2022-09-28T11:37:42.705Z,14.70
2022-09-28T11:40:33.178Z,14.60
2022-09-28T11:45:39.727Z,14.70
2022-09-28T11:48:11.356Z,14.70
2022-09-28T11:50:53.630Z,14.70
2022-09-28T11:53:23.648Z,14.80
2022-09-28T11:55:59.989Z,14.70
2022-09-28T11:58:31.455Z,14.70
2022-09-28T12:01:04.919Z,14.70
2022-09-28T12:03:40.130Z,14.80
2022-09-28T12:06:10.192Z,14.80
2022-09-28T12:08:40.530Z,14.90
2022-09-28T12:11:13.228Z,14.90
2022-09-28T12:13:44.418Z,14.90
2022-09-28T12:16:38.823Z,14.90
2022-09-28T12:19:13.896Z,14.90
2022-09-28T12:21:51.708Z,14.90
2022-09-28T12:24:33.619Z,14.90
2022-09-28T12:27:05.948Z,14.90
2022-09-28T12:29:38.851Z,14.90
2022-09-28T12:32:24.445Z,14.90
2022-09-28T12:34:51.379Z,14.80
2022-09-28T12:37:41.377Z,14.80
2022-09-28T12:40:23.643Z,14.60
2022-09-28T12:42:53.080Z,14.50
2022-09-28T12:45:23.028Z,14.50
2022-09-28T12:48:08.312Z,14.40
2022-09-28T12:50:47.494Z,14.40
2022-09-28T12:53:30.142Z,14.40
2022-09-28T12:55:57.183Z,14.30
2022-09-28T12:59:00.164Z,14.30
2022-09-28T13:01:45.244Z,14.20
2022-09-28T13:04:24.800Z,14.20
2022-09-28T13:06:51.673Z,14.30
2022-09-28T13:09:23.662Z,14.30
2022-09-28T13:12:00.006Z,14.20
2022-09-28T13:14:45.680Z,14.20
2022-09-28T13:17:31.200Z,14.30
2022-09-28T13:19:59.379Z,14.20
2022-09-28T13:22:45.162Z,14.20
2022-09-28T13:25:14.595Z,14.20
2022-09-28T13:27:45.671Z,14.20
2022-09-28T13:30:14.151Z,14.20
2022-09-28T13:32:41.650Z,14.20
2022-09-28T13:35:13.582Z,14.30
2022-09-28T13:37:41.506Z,14.20
2022-09-28T13:40:08.545Z,14.10
2022-09-28T13:42:42.238Z,14.10
2022-09-28T13:45:21.250Z,14.00
2022-09-28T13:48:06.679Z,13.90
2022-09-28T13:50:36.631Z,13.90
2022-09-28T13:53:09.825Z,13.90
2022-09-28T13:55:55.597Z,13.90
2022-09-28T13:58:36.567Z,13.80
2022-09-28T14:01:07.054Z,13.80
2022-09-28T14:03:37.026Z,13.70
2022-09-28T14:06:05.885Z,13.70
2022-09-28T14:08:35.140Z,13.70
2022-09-28T14:11:24.704Z,13.70
2022-09-28T14:13:57.577Z,13.60
2022-09-28T14:16:27.696Z,13.40
2022-09-28T14:18:54.482Z,13.40
2022-09-28T14:21:21.272Z,13.40
2022-09-28T14:24:06.973Z,13.30
2022-09-28T14:26:52.250Z,13.30
2022-09-28T14:29:29.148Z,13.20
2022-09-28T14:32:04.020Z,13.20
2022-09-28T14:34:41.780Z,13.20
2022-09-28T14:37:38.187Z,13.20
2022-09-28T14:40:38.140Z,13.20
2022-09-28T14:43:24.149Z,13.20
2022-09-28T14:45:53.216Z,13.20
2022-09-28T14:48:21.184Z,13.10
2022-09-28T14:50:50.069Z,13.10
2022-09-28T14:53:22.198Z,13.10
2022-09-28T14:55:50.974Z,13.10
2022-09-28T14:58:22.635Z,13.10
2022-09-28T15:00:51.748Z,13.10
2022-09-28T15:03:19.982Z,13.10
2022-09-28T15:05:47.385Z,13.10
2022-09-28T15:08:14.875Z,13.00
2022-09-28T15:10:46.232Z,12.90
2022-09-28T15:13:26.704Z,12.90
2022-09-28T15:16:13.777Z,12.90
2022-09-28T15:18:55.924Z,12.80
2022-09-28T15:21:23.579Z,12.70
2022-09-28T15:23:50.953Z,12.70
2022-09-28T15:26:29.654Z,12.60
2022-09-28T15:28:56.686Z,12.60
2022-09-28T15:31:28.398Z,12.60
2022-09-28T15:34:14.032Z,12.50
2022-09-28T15:36:42.136Z,12.50
2022-09-28T15:39:15.230Z,12.50
2022-09-28T15:41:43.626Z,12.50
2022-09-28T15:44:10.564Z,12.50
2022-09-28T15:46:39.348Z,12.40
2022-09-28T15:49:06.436Z,12.40
2022-09-28T15:51:46.196Z,12.40
2022-09-28T15:54:36.639Z,12.40
2022-09-28T15:57:03.555Z,12.40
2022-09-28T15:59:32.111Z,12.40
2022-09-28T16:02:08.034Z,12.30
2022-09-28T16:04:37.402Z,12.30
2022-09-28T16:07:10.622Z,12.30
2022-09-28T16:09:56.359Z,12.30
2022-09-28T16:12:24.467Z,12.20
2022-09-28T16:14:52.059Z,12.10
2022-09-28T16:17:22.671Z,12.20
2022-09-28T16:19:49.840Z,12.10
2022-09-28T16:22:24.375Z,12.10
2022-09-28T16:24:55.012Z,12.10
2022-09-28T16:27:26.989Z,12.00
2022-09-28T16:30:27.285Z,12.00
2022-09-28T16:33:02.112Z,11.90
2022-09-28T16:35:32.811Z,11.90
2022-09-28T16:38:01.520Z,11.80
2022-09-28T16:40:28.591Z,11.80
2022-09-28T16:42:57.569Z,11.70
2022-09-28T16:45:24.908Z,11.70
2022-09-28T16:47:55.402Z,11.70
2022-09-28T16:50:22.672Z,11.70
2022-09-28T16:53:27.193Z,11.70
2022-09-28T16:55:54.103Z,11.60
2022-09-28T16:58:22.452Z,11.60
2022-09-28T17:00:49.683Z,11.50
2022-09-28T17:03:18.715Z,11.50
2022-09-28T17:05:46.264Z,11.50
2022-09-28T17:08:17.167Z,11.40
2022-09-28T17:11:09.792Z,11.50
2022-09-28T17:13:35.368Z,11.50
2022-09-28T17:16:09.060Z,11.40
2022-09-28T17:18:39.152Z,11.40
2022-09-28T17:21:07.307Z,11.40
2022-09-28T17:23:34.160Z,11.30
2022-09-28T17:26:01.950Z,11.40
2022-09-28T17:28:31.473Z,11.40
2022-09-28T17:30:58.444Z,11.40
2022-09-28T17:33:25.415Z,11.30
2022-09-28T17:35:53.699Z,11.30
2022-09-28T17:38:20.907Z,11.30
2022-09-28T17:40:48.321Z,11.30
2022-09-28T17:43:15.226Z,11.20
2022-09-28T17:45:45.077Z,11.20
2022-09-28T17:48:13.105Z,11.20
2022-09-28T17:50:44.378Z,11.20
2022-09-28T17:53:13.546Z,11.10
2022-09-28T17:55:40.760Z,11.10
2022-09-28T17:58:13.808Z,11.00
2022-09-28T18:00:41.026Z,11.00
2022-09-28T18:03:13.253Z,11.00
2022-09-28T18:05:40.105Z,11.00
2022-09-28T18:08:07.053Z,10.90
2022-09-28T18:10:34.095Z,10.90
2022-09-28T18:13:01.067Z,10.90
2022-09-28T18:15:28.138Z,10.90
2022-09-28T18:17:55.243Z,10.90
2022-09-28T18:20:22.054Z,10.90
2022-09-28T18:22:48.962Z,10.90
2022-09-28T18:25:15.927Z,10.80
2022-09-28T18:27:43.293Z,10.80
2022-09-28T18:30:10.408Z,10.80
2022-09-28T18:32:37.309Z,10.70
2022-09-28T18:35:05.137Z,10.70
2022-09-28T18:37:36.285Z,10.70
2022-09-28T18:40:03.613Z,10.60
2022-09-28T18:42:30.448Z,10.60
2022-09-28T18:44:57.346Z,10.60
2022-09-28T18:47:24.658Z,10.60
2022-09-28T18:49:51.526Z,10.60
2022-09-28T18:52:18.463Z,10.60
2022-09-28T18:54:46.831Z,10.70
2022-09-28T18:57:13.751Z,10.60
2022-09-28T18:59:40.579Z,10.70
2022-09-28T19:02:08.832Z,10.70
2022-09-28T19:04:35.680Z,10.70
2022-09-28T19:07:02.499Z,10.70
2022-09-28T19:09:29.529Z,10.70
2022-09-28T19:11:56.349Z,10.70
2022-09-28T19:14:23.363Z,10.60
2022-09-28T19:16:50.344Z,10.60
2022-09-28T19:19:18.877Z,10.50
2022-09-28T19:21:45.905Z,10.50
2022-09-28T19:24:16.757Z,10.40
2022-09-28T19:26:44.057Z,10.30
2022-09-28T19:29:11.322Z,10.30
2022-09-28T19:31:38.449Z,10.30
2022-09-28T19:34:06.707Z,10.30
2022-09-28T19:36:34.304Z,10.30
2022-09-28T19:39:04.517Z,10.30
2022-09-28T19:41:43.716Z,10.20
2022-09-28T19:44:25.042Z,10.30
2022-09-28T19:47:07.155Z,10.20
2022-09-28T19:49:38.238Z,10.30
2022-09-28T19:52:13.386Z,10.30
2022-09-28T19:54:44.957Z,10.30
2022-09-28T19:57:12.646Z,10.30
2022-09-28T19:59:39.563Z,10.30
2022-09-28T20:02:06.965Z,10.30
2022-09-28T20:04:34.072Z,10.40
2022-09-28T20:07:01.164Z,10.40
2022-09-28T20:09:28.153Z,10.40
2022-09-28T20:11:55.136Z,10.30
2022-09-28T20:14:24.488Z,10.30
2022-09-28T20:16:52.911Z,10.30
2022-09-28T20:19:21.748Z,10.20
2022-09-28T20:21:48.873Z,10.20
2022-09-28T20:24:17.304Z,10.20
2022-09-28T20:26:44.857Z,10.20
2022-09-28T20:29:12.001Z,10.20
2022-09-28T20:31:38.963Z,10.20
2022-09-28T20:34:06.280Z,10.20
2022-09-28T20:36:33.202Z,10.20
2022-09-28T20:39:03.649Z,10.10
2022-09-28T20:41:36.921Z,10.10
2022-09-28T20:44:06.159Z,10.20
2022-09-28T20:46:36.896Z,10.10
2022-09-28T20:49:04.632Z,10.10
2022-09-28T20:51:31.915Z,10.10
2022-09-28T20:53:59.093Z,10.10
2022-09-28T20:56:27.560Z,10.10
2022-09-28T20:58:54.823Z,10.20
2022-09-28T21:01:23.159Z,10.20
2022-09-28T21:03:54.245Z,10.20
2022-09-28T21:06:22.746Z,10.20
2022-09-28T21:08:49.980Z,10.10
2022-09-28T21:11:17.672Z,10.20
2022-09-28T21:13:44.696Z,10.20
2022-09-28T21:16:12.809Z,10.10
2022-09-28T21:18:40.279Z,10.10
2022-09-28T21:21:07.852Z,10.10
2022-09-28T21:23:35.296Z,10.10
2022-09-28T21:26:06.113Z,10.10
2022-09-28T21:28:33.449Z,10.00
2022-09-28T21:31:00.529Z,10.10
2022-09-28T21:33:27.614Z,10.10
2022-09-28T21:35:54.524Z,10.00
2022-09-28T21:38:21.408Z,10.00
2022-09-28T21:40:48.599Z,10.00
2022-09-28T21:43:16.252Z,10.10
2022-09-28T21:45:44.097Z,10.10
2022-09-28T21:48:11.523Z,10.10
2022-09-28T21:50:38.465Z,10.10
2022-09-28T21:53:05.336Z,10.10
2022-09-28T21:55:32.397Z,10.10
2022-09-28T21:57:59.266Z,10.00
2022-09-28T22:00:26.461Z,10.00
2022-09-28T22:02:53.450Z,10.00
2022-09-28T22:05:20.540Z,10.00
2022-09-28T22:07:47.415Z,10.00
2022-09-28T22:10:15.185Z,9.90
2022-09-28T22:12:42.129Z,9.90
2022-09-28T22:15:09.384Z,10.00
2022-09-28T22:17:36.288Z,10.00
2022-09-28T22:20:03.966Z,10.00
2022-09-28T22:22:30.797Z,10.00
2022-09-28T22:24:57.750Z,9.90
2022-09-28T22:27:24.820Z,10.00
2022-09-28T22:29:51.862Z,10.00
2022-09-28T22:32:18.823Z,10.00
2022-09-28T22:34:45.880Z,10.00
2022-09-28T22:37:12.891Z,10.00
2022-09-28T22:39:41.202Z,9.90
2022-09-28T22:42:08.548Z,9.90
2022-09-28T22:44:35.966Z,9.90
2022-09-28T22:47:03.618Z,9.80
2022-09-28T22:49:31.789Z,9.90
2022-09-28T22:51:58.832Z,9.90
2022-09-28T22:54:26.192Z,9.90
2022-09-28T22:56:52.986Z,9.90
2022-09-28T22:59:19.911Z,9.90
2022-09-28T23:01:46.983Z,9.90
2022-09-28T23:04:13.801Z,9.90
2022-09-28T23:06:41.353Z,9.90
2022-09-28T23:09:08.186Z,10.00
2022-09-28T23:11:35.508Z,9.90
2022-09-28T23:14:04.204Z,10.00
2022-09-28T23:16:31.171Z,10.00
2022-09-28T23:18:58.079Z,10.00
2022-09-28T23:21:26.046Z,10.00
2022-09-28T23:23:56.233Z,10.00
2022-09-28T23:26:24.704Z,10.00
2022-09-28T23:28:51.642Z,9.90
2022-09-28T23:31:19.817Z,9.80
2022-09-28T23:33:46.708Z,9.80
2022-09-28T23:36:14.036Z,9.70
2022-09-28T23:38:41.020Z,9.70
2022-09-28T23:41:07.993Z,9.70
2022-09-28T23:43:34.999Z,9.60
2022-09-28T23:46:02.462Z,9.70
2022-09-28T23:48:29.711Z,9.60
2022-09-28T23:50:56.571Z,9.60
2022-09-28T23:53:23.504Z,9.60
2022-09-28T23:55:50.386Z,9.60
2022-09-28T23:58:17.488Z,9.60
